Union Center, WI (53962)

5:08 PM CST on January 28, 2015 (GMT -0600)
Hillsboro | Change Station
CLOSE
Current Station
Personal Weather Station
Location: Hillsboro, WI
Elevation: 958 ft
Nearby Weather Stations
Active Advisory: Freezing Rain Advisory

Elev 958 ft 43.65 °N, 90.34 °W | Updated 1 second ago

Partly Cloudy
Partly Cloudy
32.0 °F
Feels Like 26 °F
N
5.8
Wind Variable Wind from ENE
Gusts 9.8 mph

Today
High -- | Low -- °F
--% Chance of Precip.
Yesterday
High -- | Low -- °F
Precip. -- in
7:22 AM 5:06 PM
Waxing Gibbous, 68% visible
Pressure 29.89 in
Visibility 7.0 miles
Clouds Scattered Clouds 12000 ft
Mostly Cloudy 20000 ft
Windchill 26 °F
Dew Point 20 °F
Humidity 61%
Rainfall 0.00 in
Snow Depth Not available.
UV 0 out of 12
Pollen .10 out of 12
Air Quality Not available.
Flu Activity Not available.
METAR KVOK 282258Z 12011G19KT 7SM SCT120 BKN200 M01/M03 A2985 RMK AO2A SLP122

More Conditions Fewer Conditions

Pressure 29.89 in
Visibility 7.0 miles
Clouds Scattered Clouds 12000 ft
Mostly Cloudy 20000 ft
Windchill 26 °F
Dew Point 20 °F
Humidity 61%
Rainfall 0.00 in
Snow Depth Not available.
UV 0 out of 12
Pollen .10 out of 12
Air Quality Not available.
Flu Activity Not available.
METAR KVOK 282258Z 12011G19KT 7SM SCT120 BKN200 M01/M03 A2985 RMK AO2A SLP122

More Conditions Fewer Conditions

10-Day Weather Forecast

Almanac

Astronomy

Jan. 28, 2015 Rise Set
Actual Time
Civil Twilight
Nautical Twilight
Astronomical Twilight
Moon
Length of Visible Light
Length of Day
Tomorrow will be .
, % of the Moon is Illuminated

Today's Extremes

State Highs State Lows

Community

WunderPhotos

Upload Photos

1,791,292 photos uploaded!

WunderBlogs® & News

Nearby

Air Quality

  Air Quality AQ Index Pollutant
Not available.

Snow Depth

Station Depth Elevation

Earthquake Activity

City Distance Mag. Time & Date
Minimum magnitude displayed is 2.5.

Coastal Water Temperatures

Place Temperature

Nearby Weather Stations